Time;durP1;ratioP1;P1;durP2;ratioP2;P2;SDS_P1;SDS_P2;PMS_P1;PMS_P2;Temp;Humidity;BMP_temperature;BMP_pressure;BME280_temperature;BME280_humidity;BME280_pressure;Samples;Min_cycle;Max_cycle;Signal;HPM_P1;HPM_P2
2021/03/09 00:00:13;;;;;;;1.05;0.93;;;19.80;43.90;;;;;;6178899;28;20046;-69
2021/03/09 00:03:13;;;;;;;1.45;1.00;;;19.80;44.20;;;;;;6177039;28;20442;-69
2021/03/09 00:06:14;;;;;;;1.20;0.90;;;19.80;44.20;;;;;;6173503;28;20038;-69
2021/03/09 00:09:14;;;;;;;1.10;0.95;;;19.80;44.30;;;;;;6176014;28;20118;-69
2021/03/09 00:12:15;;;;;;;1.17;0.98;;;19.80;43.90;;;;;;6175706;28;20203;-68
2021/03/09 00:15:15;;;;;;;1.88;1.08;;;19.80;44.00;;;;;;6174928;28;20031;-69
2021/03/09 00:18:16;;;;;;;1.30;1.00;;;19.80;44.10;;;;;;6174152;28;20055;-68
2021/03/09 00:21:16;;;;;;;1.73;1.10;;;19.80;44.10;;;;;;6173107;28;20326;-69
2021/03/09 00:24:17;;;;;;;1.25;1.00;;;19.80;44.00;;;;;;6173970;28;20070;-69
2021/03/09 00:27:17;;;;;;;2.28;1.30;;;19.80;44.10;;;;;;6172907;28;20532;-69
2021/03/09 00:30:19;;;;;;;1.52;0.90;;;19.80;44.20;;;;;;6180672;28;20494;-69
2021/03/09 00:33:20;;;;;;;1.58;0.98;;;19.80;43.90;;;;;;6185655;28;20018;-69
2021/03/09 00:36:20;;;;;;;1.58;1.10;;;19.80;44.10;;;;;;6172968;28;20026;-69
2021/03/09 00:39:21;;;;;;;1.20;1.00;;;19.80;43.90;;;;;;6179265;28;20031;-69
2021/03/09 00:42:21;;;;;;;1.58;1.10;;;19.80;44.20;;;;;;6172841;28;20090;-69
2021/03/09 00:45:22;;;;;;;1.45;1.13;;;19.80;44.10;;;;;;6178639;28;20224;-69
2021/03/09 00:48:23;;;;;;;1.02;0.93;;;19.80;44.10;;;;;;6178855;28;20034;-69
2021/03/09 00:51:24;;;;;;;2.45;1.08;;;19.80;43.90;;;;;;6172150;28;20371;-69
2021/03/09 00:54:24;;;;;;;2.17;1.10;;;19.80;44.20;;;;;;6177048;28;20031;-69
2021/03/09 00:57:25;;;;;;;1.50;0.98;;;19.80;44.20;;;;;;6172195;28;20023;-69
2021/03/09 01:00:26;;;;;;;1.25;1.00;;;19.80;44.10;;;;;;6176216;28;20045;-69
2021/03/09 01:03:27;;;;;;;1.65;0.90;;;19.80;44.10;;;;;;6176195;28;20032;-69
2021/03/09 01:06:27;;;;;;;1.55;1.20;;;19.80;44.00;;;;;;6177460;28;20038;-69
2021/03/09 01:09:28;;;;;;;1.33;1.10;;;19.80;44.10;;;;;;6174706;28;20137;-69
2021/03/09 01:12:28;;;;;;;0.93;0.82;;;19.80;44.10;;;;;;6171900;28;20022;-69
2021/03/09 01:15:29;;;;;;;1.38;1.05;;;19.80;44.10;;;;;;6174303;28;20027;-69
2021/03/09 01:18:30;;;;;;;1.63;1.10;;;19.80;44.20;;;;;;6173518;28;20026;-70
2021/03/09 01:21:30;;;;;;;1.50;1.00;;;19.80;44.00;;;;;;6172590;28;20042;-69
2021/03/09 01:24:31;;;;;;;1.42;0.95;;;19.80;44.10;;;;;;6173361;28;20481;-69
2021/03/09 01:27:32;;;;;;;1.88;0.90;;;19.80;44.10;;;;;;6171629;28;20057;-69
2021/03/09 01:30:33;;;;;;;1.08;0.70;;;19.80;44.10;;;;;;6180176;28;20517;-69
2021/03/09 01:33:34;;;;;;;1.30;1.00;;;19.80;44.10;;;;;;6173350;28;20035;-69
2021/03/09 01:36:34;;;;;;;1.50;0.95;;;19.70;44.10;;;;;;6174403;28;20465;-69
2021/03/09 01:39:35;;;;;;;1.20;0.90;;;19.80;44.30;;;;;;6182716;28;20038;-69
2021/03/09 01:42:35;;;;;;;1.00;0.90;;;19.80;44.10;;;;;;6167350;28;20391;-69
2021/03/09 01:45:36;;;;;;;1.45;1.15;;;19.80;44.20;;;;;;6178160;28;20047;-69
2021/03/09 01:48:42;;;;;;;1.15;0.95;;;19.80;44.10;;;;;;6172613;28;20037;-68
2021/03/09 01:51:44;;;;;;;1.58;1.20;;;19.70;44.10;;;;;;6174722;28;20034;-69
2021/03/09 01:54:45;;;;;;;1.13;0.90;;;19.80;44.10;;;;;;6177870;28;20023;-69
2021/03/09 01:57:45;;;;;;;1.63;1.10;;;19.80;44.00;;;;;;6170358;28;20034;-71
2021/03/09 02:00:46;;;;;;;0.95;0.70;;;19.70;44.00;;;;;;6176264;28;20478;-69
2021/03/09 02:03:47;;;;;;;1.90;1.38;;;19.80;44.20;;;;;;6171849;28;20044;-69
2021/03/09 02:06:47;;;;;;;1.08;0.82;;;19.70;44.10;;;;;;6174143;28;20037;-69
2021/03/09 02:09:48;;;;;;;1.38;1.13;;;19.80;44.00;;;;;;6176242;28;20048;-69
2021/03/09 02:12:55;;;;;;;1.40;1.00;;;19.70;44.10;;;;;;6174454;28;20536;-69
2021/03/09 02:16:03;;;;;;;1.23;0.90;;;19.70;44.10;;;;;;6174156;28;20047;-69
2021/03/09 02:19:30;;;;;;;2.05;1.30;;;19.70;44.10;;;;;;6172002;28;20585;-69
2021/03/09 02:22:49;;;;;;;1.88;1.25;;;19.70;44.00;;;;;;6169690;28;20046;-69
2021/03/09 02:26:08;;;;;;;1.25;0.80;;;19.70;43.90;;;;;;6172957;28;20026;-69
2021/03/09 02:29:26;;;;;;;1.50;1.10;;;19.70;43.90;;;;;;6172021;28;20367;-69
2021/03/09 02:32:28;;;;;;;1.90;1.30;;;19.80;44.10;;;;;;6176271;28;20031;-69
2021/03/09 02:35:30;;;;;;;1.45;1.10;;;19.80;44.00;;;;;;6178367;28;20030;-69
2021/03/09 02:38:38;;;;;;;1.45;1.10;;;19.70;43.90;;;;;;6169463;28;20018;-69
2021/03/09 02:41:44;;;;;;;2.00;1.23;;;19.70;43.90;;;;;;6177255;28;20029;-69
2021/03/09 02:44:46;;;;;;;1.63;1.10;;;19.70;43.90;;;;;;6176287;28;20491;-69
2021/03/09 02:47:48;;;;;;;1.83;1.13;;;19.70;43.90;;;;;;6173074;28;20386;-69
2021/03/09 02:50:53;;;;;;;2.00;1.20;;;19.80;44.20;;;;;;6174018;28;20504;-69
2021/03/09 02:53:57;;;;;;;1.85;1.10;;;19.80;44.20;;;;;;6169908;28;20389;-69
2021/03/09 02:56:59;;;;;;;1.67;1.10;;;19.80;44.30;;;;;;6176599;28;20070;-69
2021/03/09 03:00:01;;;;;;;1.10;1.00;;;19.70;44.20;;;;;;6175456;28;20069;-69
2021/03/09 03:03:06;;;;;;;1.00;0.90;;;19.70;44.00;;;;;;6170983;28;20031;-69
2021/03/09 03:06:09;;;;;;;1.55;1.02;;;19.70;44.00;;;;;;6175974;28;20493;-69
2021/03/09 03:09:12;;;;;;;1.80;1.30;;;19.70;44.20;;;;;;6169373;28;20482;-69
2021/03/09 03:12:13;;;;;;;2.47;1.35;;;19.70;43.90;;;;;;6175189;28;20033;-69
2021/03/09 03:15:15;;;;;;;1.88;1.35;;;19.70;44.30;;;;;;6174856;28;20052;-68
2021/03/09 03:18:17;;;;;;;1.67;1.20;;;19.70;43.90;;;;;;6173591;28;20098;-69
2021/03/09 03:21:18;;;;;;;1.48;1.05;;;19.70;44.10;;;;;;6174621;28;20034;-69
2021/03/09 03:24:20;;;;;;;1.58;1.10;;;19.70;44.00;;;;;;6169322;28;20375;-69
2021/03/09 03:27:20;;;;;;;1.38;1.02;;;19.70;44.20;;;;;;6180842;28;20340;-69
2021/03/09 03:30:22;;;;;;;3.17;1.30;;;19.70;44.10;;;;;;6172749;28;20389;-69
2021/03/09 03:33:22;;;;;;;1.20;0.80;;;19.70;43.90;;;;;;6176426;28;20066;-69
2021/03/09 03:36:24;;;;;;;1.88;1.27;;;19.70;44.00;;;;;;6178398;28;20034;-69
2021/03/09 03:39:24;;;;;;;1.35;1.02;;;19.70;44.00;;;;;;6168874;28;20033;-69
2021/03/09 03:42:25;;;;;;;1.73;0.90;;;19.70;44.00;;;;;;6176925;28;20022;-69
2021/03/09 03:45:26;;;;;;;1.77;1.13;;;19.70;44.10;;;;;;6171055;28;20058;-69
2021/03/09 03:48:30;;;;;;;1.67;1.17;;;19.70;44.30;;;;;;6173191;28;20106;-69
2021/03/09 03:51:43;;;;;;;1.50;1.00;;;19.70;44.10;;;;;;6178935;28;20077;-69
2021/03/09 03:54:54;;;;;;;1.90;1.35;;;19.70;44.20;;;;;;6169008;28;20031;-69
2021/03/09 03:57:59;;;;;;;1.90;0.95;;;19.70;44.10;;;;;;6172349;28;20031;-69
2021/03/09 04:01:01;;;;;;;1.60;1.10;;;19.70;44.00;;;;;;6169575;28;20413;-69
2021/03/09 04:04:08;;;;;;;1.48;1.00;;;19.70;44.10;;;;;;6170355;28;20093;-69
2021/03/09 04:07:08;;;;;;;1.42;1.13;;;19.70;44.20;;;;;;6176796;28;20034;-69
2021/03/09 04:10:10;;;;;;;1.05;0.90;;;19.70;44.30;;;;;;6168404;28;20493;-69
2021/03/09 04:13:12;;;;;;;1.80;1.08;;;19.70;44.00;;;;;;6176191;28;20336;-69
2021/03/09 04:16:15;;;;;;;1.45;1.02;;;19.70;44.10;;;;;;6175004;28;20042;-69
2021/03/09 04:19:17;;;;;;;2.03;1.25;;;19.70;44.20;;;;;;6168342;28;20549;-68
2021/03/09 04:22:18;;;;;;;1.50;1.00;;;19.70;44.30;;;;;;6182276;28;20070;-69
2021/03/09 04:25:20;;;;;;;2.00;1.30;;;19.70;44.20;;;;;;6172146;28;20082;-69
2021/03/09 04:28:22;;;;;;;2.05;1.30;;;19.70;44.10;;;;;;6184924;28;20037;-69
2021/03/09 04:31:23;;;;;;;2.13;1.10;;;19.70;44.20;;;;;;6174359;28;20379;-69
2021/03/09 04:34:23;;;;;;;1.60;1.13;;;19.70;44.10;;;;;;6179436;28;20034;-69
2021/03/09 04:37:24;;;;;;;1.58;1.10;;;19.70;44.10;;;;;;6179737;28;20542;-69
2021/03/09 04:40:25;;;;;;;1.73;1.10;;;19.70;44.20;;;;;;6173955;28;20037;-69
2021/03/09 04:43:26;;;;;;;1.13;0.98;;;19.70;44.20;;;;;;6180120;28;20038;-69
2021/03/09 04:46:28;;;;;;;1.80;1.10;;;19.70;44.30;;;;;;6175777;28;20153;-69
2021/03/09 04:49:30;;;;;;;1.67;1.05;;;19.70;44.30;;;;;;6176071;28;20452;-69
2021/03/09 04:52:31;;;;;;;1.83;1.20;;;19.70;44.10;;;;;;6178427;28;20034;-69
2021/03/09 04:55:32;;;;;;;2.05;1.27;;;19.70;44.10;;;;;;6177295;28;20037;-69
2021/03/09 04:58:33;;;;;;;1.55;1.08;;;19.70;44.10;;;;;;6176686;28;20576;-69
2021/03/09 05:01:33;;;;;;;1.30;1.13;;;19.70;44.20;;;;;;6173744;28;20118;-69
2021/03/09 05:04:34;;;;;;;1.75;1.10;;;19.70;44.20;;;;;;6173581;28;20490;-69
2021/03/09 05:07:34;;;;;;;2.13;1.25;;;19.70;44.10;;;;;;6172637;28;20023;-70
2021/03/09 05:10:35;;;;;;;1.75;1.13;;;19.70;44.10;;;;;;6167101;28;20042;-69
2021/03/09 05:13:35;;;;;;;1.48;1.10;;;19.70;44.30;;;;;;6173149;28;20118;-69
2021/03/09 05:16:36;;;;;;;1.55;1.13;;;19.70;44.30;;;;;;6172124;28;20055;-69
2021/03/09 05:19:36;;;;;;;1.70;1.20;;;19.70;44.10;;;;;;6179448;28;20025;-69
2021/03/09 05:22:38;;;;;;;1.70;1.10;;;19.70;44.40;;;;;;6180202;28;20672;-69
2021/03/09 05:25:38;;;;;;;1.98;1.27;;;19.70;44.50;;;;;;6176833;28;20118;-69
2021/03/09 05:28:39;;;;;;;1.63;1.00;;;19.70;44.30;;;;;;6182506;28;20742;-69
2021/03/09 05:31:40;;;;;;;1.42;0.95;;;19.70;44.40;;;;;;6172314;28;20034;-69
2021/03/09 05:34:40;;;;;;;1.48;1.05;;;19.80;44.30;;;;;;6180592;28;20031;-69
2021/03/09 05:37:42;;;;;;;2.20;1.23;;;19.70;44.30;;;;;;6176663;28;20026;-69
2021/03/09 05:40:43;;;;;;;1.88;1.20;;;19.70;44.40;;;;;;6175105;28;20114;-69
2021/03/09 05:43:44;;;;;;;1.45;0.95;;;19.70;44.80;;;;;;6180598;28;20039;-69
2021/03/09 05:46:46;;;;;;;1.45;1.05;;;19.80;44.30;;;;;;6172311;28;20030;-69
2021/03/09 05:49:47;;;;;;;1.25;0.98;;;19.80;44.30;;;;;;6178006;28;20038;-69
2021/03/09 05:52:48;;;;;;;2.33;1.10;;;19.70;44.10;;;;;;6175157;28;20093;-69
2021/03/09 05:55:48;;;;;;;1.75;1.23;;;19.70;44.30;;;;;;6173839;28;20039;-69
2021/03/09 05:58:49;;;;;;;1.35;1.00;;;19.80;44.30;;;;;;6175823;28;20029;-69
2021/03/09 06:01:50;;;;;;;1.38;0.98;;;19.70;44.10;;;;;;6175707;28;20026;-69
2021/03/09 06:04:50;;;;;;;1.77;1.25;;;19.70;44.30;;;;;;6175629;28;20030;-69
2021/03/09 06:07:54;;;;;;;1.30;1.00;;;19.70;44.30;;;;;;6172471;28;20118;-69
2021/03/09 06:11:15;;;;;;;1.90;1.30;;;19.70;44.30;;;;;;6170927;28;20035;-69
2021/03/09 06:14:16;;;;;;;1.65;1.00;;;19.80;44.50;;;;;;6180792;28;20120;-68
2021/03/09 06:17:24;;;;;;;1.65;1.23;;;19.80;44.60;;;;;;6171174;28;20051;-69
2021/03/09 06:20:30;;;;;;;1.35;1.00;;;19.80;44.60;;;;;;6178309;28;20396;-69
2021/03/09 06:23:30;;;;;;;1.58;1.00;;;19.80;44.70;;;;;;6171840;28;20473;-69
2021/03/09 06:26:37;;;;;;;1.70;1.02;;;19.80;44.70;;;;;;6176204;28;20032;-69
2021/03/09 06:29:43;;;;;;;1.77;1.13;;;19.80;44.70;;;;;;6175336;28;20482;-71
2021/03/09 06:32:45;;;;;;;1.30;1.10;;;19.80;44.80;;;;;;6174243;28;20030;-69
2021/03/09 06:35:46;;;;;;;2.00;1.10;;;19.80;44.80;;;;;;6174870;28;20109;-69
2021/03/09 06:38:54;;;;;;;1.55;1.00;;;19.80;44.80;;;;;;6177390;28;20053;-69
2021/03/09 06:42:00;;;;;;;2.15;1.30;;;19.80;44.80;;;;;;6172238;28;20034;-69
2021/03/09 06:45:08;;;;;;;1.85;1.10;;;19.80;44.80;;;;;;6180443;28;20022;-69
2021/03/09 06:48:22;;;;;;;1.88;1.10;;;19.80;44.90;;;;;;6174726;28;20037;-69
2021/03/09 06:51:30;;;;;;;1.65;1.20;;;19.80;44.90;;;;;;6172659;28;20093;-69
2021/03/09 06:54:42;;;;;;;3.85;1.20;;;19.80;44.90;;;;;;6176847;28;20145;-69
2021/03/09 06:58:06;;;;;;;1.98;1.20;;;19.80;44.90;;;;;;6169405;28;20520;-69
2021/03/09 07:01:14;;;;;;;1.98;1.25;;;19.80;44.90;;;;;;6167151;28;20029;-69
2021/03/09 07:04:21;;;;;;;1.65;1.20;;;19.80;45.00;;;;;;6166692;28;20022;-68
2021/03/09 07:07:27;;;;;;;1.52;0.95;;;19.80;44.90;;;;;;6175020;28;20117;-69
2021/03/09 07:10:30;;;;;;;1.63;1.00;;;19.80;45.00;;;;;;6179178;28;20077;-69
2021/03/09 07:13:32;;;;;;;1.65;1.20;;;19.80;45.00;;;;;;6173854;28;20050;-69
2021/03/09 07:16:34;;;;;;;1.85;1.20;;;19.80;45.00;;;;;;6177752;28;20051;-69
2021/03/09 07:19:41;;;;;;;1.05;0.85;;;19.80;45.00;;;;;;6173806;28;20031;-69
2021/03/09 07:22:44;;;;;;;2.10;1.33;;;19.80;45.70;;;;;;6175184;28;20019;-69
2021/03/09 07:25:51;;;;;;;1.90;1.40;;;19.80;45.00;;;;;;6176622;28;20105;-69
2021/03/09 07:28:52;;;;;;;1.92;1.10;;;19.80;45.00;;;;;;6169422;28;20058;-69
2021/03/09 07:31:56;;;;;;;1.45;1.10;;;19.80;45.00;;;;;;6172993;28;20049;-68
2021/03/09 07:35:00;;;;;;;3.58;1.13;;;19.80;45.00;;;;;;6173341;28;20055;-69
2021/03/09 07:38:03;;;;;;;2.00;1.13;;;19.80;45.00;;;;;;6171670;28;20199;-69
2021/03/09 07:41:04;;;;;;;1.30;1.00;;;19.80;45.00;;;;;;6174400;28;20030;-69
2021/03/09 07:44:05;;;;;;;1.58;1.25;;;19.80;45.00;;;;;;6176820;28;20068;-69
2021/03/09 07:47:08;;;;;;;1.75;1.20;;;19.80;45.00;;;;;;6174413;28;20027;-69
2021/03/09 07:50:12;;;;;;;1.70;1.27;;;19.80;45.10;;;;;;6178537;28;20406;-69
2021/03/09 07:53:18;;;;;;;1.90;1.20;;;19.80;45.00;;;;;;6169851;28;20043;-69
2021/03/09 07:56:19;;;;;;;1.67;1.30;;;19.80;45.10;;;;;;6178343;28;20095;-69
2021/03/09 07:59:19;;;;;;;1.88;1.40;;;19.80;45.10;;;;;;6176529;28;20018;-69
2021/03/09 08:02:57;;;;;;;1.60;1.20;;;19.80;45.10;;;;;;6175272;28;20031;-69
2021/03/09 08:06:03;;;;;;;1.60;1.02;;;19.80;45.10;;;;;;6130911;28;20630;-69
2021/03/09 08:09:04;;;;;;;1.70;1.10;;;19.80;45.10;;;;;;6177810;28;20038;-69
2021/03/09 08:12:23;;;;;;;2.10;1.20;;;19.80;45.10;;;;;;6183205;28;20089;-69
2021/03/09 08:15:23;;;;;;;2.13;1.33;;;19.80;45.10;;;;;;6182643;28;20396;-69
2021/03/09 08:18:24;;;;;;;2.13;1.25;;;19.80;45.30;;;;;;6180564;28;20063;-69
2021/03/09 08:21:58;;;;;;;2.53;1.33;;;19.80;45.10;;;;;;6184123;28;20124;-69
2021/03/09 08:24:58;;;;;;;2.00;1.42;;;19.80;45.10;;;;;;6154901;28;20576;-69
2021/03/09 08:28:32;;;;;;;2.28;1.38;;;19.80;45.10;;;;;;6175070;28;20110;-69
2021/03/09 08:31:32;;;;;;;1.77;1.30;;;19.80;45.10;;;;;;6176945;28;20466;-69
2021/03/09 08:34:33;;;;;;;2.17;1.20;;;19.80;45.20;;;;;;6176080;28;20042;-69
2021/03/09 08:37:33;;;;;;;2.95;1.63;;;19.80;45.10;;;;;;6178257;28;20042;-69
2021/03/09 08:40:34;;;;;;;2.10;1.30;;;19.80;45.10;;;;;;6175572;28;20094;-69
2021/03/09 08:43:35;;;;;;;2.88;1.58;;;19.80;45.10;;;;;;6177465;28;20371;-69
2021/03/09 08:46:57;;;;;;;2.17;1.58;;;19.80;45.10;;;;;;6178544;28;20487;-69
2021/03/09 08:49:58;;;;;;;1.90;1.15;;;19.80;45.20;;;;;;6178660;28;20532;-69
2021/03/09 08:52:58;;;;;;;2.00;1.40;;;19.80;45.20;;;;;;6177463;28;20066;-69
2021/03/09 08:56:04;;;;;;;2.10;1.25;;;19.80;45.20;;;;;;6179795;28;20107;-69
2021/03/09 08:59:04;;;;;;;2.25;1.38;;;19.80;45.20;;;;;;6172139;28;20030;-69
2021/03/09 09:02:07;;;;;;;1.73;1.27;;;19.80;45.20;;;;;;6184346;28;20034;-69
2021/03/09 09:05:08;;;;;;;2.10;1.20;;;19.80;45.20;;;;;;6178165;28;20076;-69
2021/03/09 09:08:18;;;;;;;1.98;1.50;;;19.80;45.20;;;;;;6178504;28;20114;-69
2021/03/09 09:11:26;;;;;;;2.60;1.50;;;19.80;45.20;;;;;;6177949;28;20053;-69
2021/03/09 09:14:28;;;;;;;3.00;1.50;;;19.80;45.20;;;;;;6177791;28;20058;-69
2021/03/09 09:17:29;;;;;;;2.25;1.30;;;19.80;45.20;;;;;;6180981;28;20125;-69
2021/03/09 09:20:37;;;;;;;1.70;1.30;;;19.80;45.20;;;;;;6174070;28;20081;-69
2021/03/09 09:23:37;;;;;;;3.22;1.73;;;19.80;45.20;;;;;;6174066;28;20031;-70
2021/03/09 09:26:38;;;;;;;39.65;1.88;;;19.80;45.20;;;;;;6175064;28;20030;-69
2021/03/09 09:29:53;;;;;;;15.13;1.45;;;19.80;46.00;;;;;;6170177;28;20050;-69
2021/03/09 09:32:57;;;;;;;6.53;1.93;;;19.90;45.30;;;;;;6175002;28;20031;-69
2021/03/09 09:35:58;;;;;;;8.90;1.52;;;19.90;45.40;;;;;;6174237;28;20410;-69
2021/03/09 09:38:58;;;;;;;6.55;1.55;;;19.90;45.40;;;;;;6175488;28;20039;-69
2021/03/09 09:41:59;;;;;;;3.88;1.60;;;19.80;45.40;;;;;;6175214;28;20477;-69
2021/03/09 09:44:59;;;;;;;7.38;1.58;;;19.80;45.40;;;;;;6168764;28;20097;-69
2021/03/09 09:48:00;;;;;;;3.97;1.73;;;19.80;45.30;;;;;;6178091;28;20076;-69
2021/03/09 09:51:03;;;;;;;3.05;1.63;;;19.80;45.40;;;;;;6180002;28;20457;-69
2021/03/09 09:54:10;;;;;;;5.57;1.42;;;19.80;45.40;;;;;;6184544;28;20545;-69
2021/03/09 09:57:10;;;;;;;2.08;1.23;;;19.80;45.40;;;;;;6178765;28;20062;-69
2021/03/09 10:00:12;;;;;;;4.43;1.70;;;19.80;45.40;;;;;;6177751;28;20023;-69
2021/03/09 10:03:16;;;;;;;3.05;1.30;;;19.80;45.40;;;;;;6170618;28;20026;-69
2021/03/09 10:06:17;;;;;;;1.48;1.20;;;19.80;45.40;;;;;;6171817;28;20065;-69
2021/03/09 10:09:23;;;;;;;2.63;1.55;;;19.80;45.40;;;;;;6174209;28;20066;-69
2021/03/09 10:12:36;;;;;;;2.67;1.50;;;19.80;45.40;;;;;;6177083;28;20031;-69
2021/03/09 10:15:45;;;;;;;5.57;1.48;;;19.80;45.40;;;;;;6166391;28;20133;-69
2021/03/09 10:18:50;;;;;;;4.85;1.45;;;19.90;45.50;;;;;;6175897;28;20077;-69
2021/03/09 10:21:55;;;;;;;2.45;1.25;;;19.80;45.40;;;;;;6174722;28;20115;-65
2021/03/09 10:25:10;;;;;;;85.10;11.00;;;19.80;45.40;;;;;;6166430;28;20110;-63
2021/03/09 10:28:11;;;;;;;174.47;14.97;;;19.90;46.00;;;;;;6174951;28;20117;-63
2021/03/09 10:31:13;;;;;;;133.60;15.98;;;20.00;46.00;;;;;;6181580;28;20357;-64
2021/03/09 10:34:16;;;;;;;19.35;3.63;;;20.00;45.80;;;;;;6178610;28;20033;-63
2021/03/09 10:37:18;;;;;;;33.65;4.63;;;20.00;45.20;;;;;;6173130;28;20019;-64
2021/03/09 10:40:18;;;;;;;20.65;3.75;;;20.10;46.30;;;;;;6177907;28;20505;-65
2021/03/09 10:43:38;;;;;;;13.98;3.28;;;20.10;45.90;;;;;;6172188;28;20050;-65
2021/03/09 10:46:39;;;;;;;84.00;8.80;;;20.20;45.60;;;;;;6176729;28;20026;-62
2021/03/09 10:49:39;;;;;;;36.05;4.50;;;20.10;45.60;;;;;;6175610;28;20049;-64
2021/03/09 10:52:40;;;;;;;39.65;5.00;;;20.20;45.70;;;;;;6171142;28;20070;-63
2021/03/09 10:55:40;;;;;;;28.58;3.95;;;20.10;46.00;;;;;;6175746;28;20088;-63
2021/03/09 10:58:41;;;;;;;29.30;3.65;;;19.80;46.60;;;;;;6177443;28;20460;-63
2021/03/09 11:01:42;;;;;;;25.08;4.38;;;19.90;46.30;;;;;;6176091;28;20034;-63
2021/03/09 11:04:42;;;;;;;157.48;11.18;;;20.00;46.10;;;;;;6177431;28;20485;-67
2021/03/09 11:07:43;;;;;;;68.80;6.70;;;20.10;47.60;;;;;;6183136;28;20473;-67
2021/03/09 11:10:43;;;;;;;66.20;5.63;;;20.20;47.30;;;;;;6193879;28;20134;-67
2021/03/09 11:13:44;;;;;;;52.22;5.03;;;20.20;46.30;;;;;;6192941;28;20018;-70
2021/03/09 11:16:44;;;;;;;38.60;4.43;;;20.30;46.40;;;;;;6193238;28;20461;-67
2021/03/09 11:19:45;;;;;;;47.35;4.47;;;20.30;46.00;;;;;;6194314;28;20018;-69
2021/03/09 11:22:45;;;;;;;35.17;4.00;;;20.20;46.10;;;;;;6193105;28;20105;-68
2021/03/09 11:25:46;;;;;;;41.38;4.88;;;20.20;46.10;;;;;;6193906;28;20034;-68
2021/03/09 11:28:47;;;;;;;30.33;3.67;;;20.20;46.10;;;;;;6194018;28;20168;-68
2021/03/09 11:31:47;;;;;;;28.92;3.97;;;20.20;46.20;;;;;;6194416;28;20490;-67
2021/03/09 11:34:48;;;;;;;19.67;3.58;;;20.20;46.50;;;;;;6197042;28;20033;-66
2021/03/09 11:37:49;;;;;;;16.83;3.85;;;20.30;46.30;;;;;;6179659;28;20057;-66
2021/03/09 11:40:49;;;;;;;22.75;3.55;;;20.40;45.60;;;;;;6200229;28;20160;-68
2021/03/09 11:43:50;;;;;;;20.40;3.30;;;20.40;45.70;;;;;;6199813;28;20022;-68
2021/03/09 11:46:51;;;;;;;14.68;2.83;;;20.40;45.80;;;;;;6190120;28;20022;-67
2021/03/09 11:49:52;;;;;;;10.30;3.10;;;20.30;45.80;;;;;;6199403;28;20026;-68
2021/03/09 11:52:52;;;;;;;16.98;2.90;;;20.30;46.60;;;;;;6193268;28;20065;-67
2021/03/09 11:55:53;;;;;;;16.45;2.92;;;20.30;46.00;;;;;;6200496;28;20023;-67
2021/03/09 11:58:53;;;;;;;13.07;2.90;;;20.30;46.00;;;;;;6198369;28;20548;-67
2021/03/09 12:01:54;;;;;;;8.48;2.78;;;20.30;46.00;;;;;;6200454;28;20030;-67
2021/03/09 12:04:54;;;;;;;11.15;2.75;;;20.30;46.00;;;;;;6199616;28;20077;-68
2021/03/09 12:07:55;;;;;;;9.43;2.00;;;20.30;45.90;;;;;;6199529;28;20033;-67
2021/03/09 12:10:55;;;;;;;4.90;2.08;;;20.30;46.00;;;;;;6187555;28;20042;-67
2021/03/09 12:13:56;;;;;;;11.15;2.92;;;20.30;45.90;;;;;;6196399;28;20401;-67
2021/03/09 12:16:57;;;;;;;8.88;2.28;;;20.30;45.90;;;;;;6191428;28;20054;-67
2021/03/09 12:19:57;;;;;;;8.25;2.20;;;20.30;46.00;;;;;;6199603;28;20682;-67
2021/03/09 12:22:58;;;;;;;9.60;2.15;;;20.30;45.90;;;;;;6170284;28;20038;-67
2021/03/09 12:25:58;;;;;;;4.60;2.00;;;20.30;45.90;;;;;;6198512;28;20034;-68
2021/03/09 12:29:00;;;;;;;8.77;1.90;;;20.30;45.90;;;;;;6176861;28;20381;-67
2021/03/09 12:32:01;;;;;;;5.57;2.17;;;20.30;45.80;;;;;;6147691;29;20480;-67
2021/03/09 12:35:01;;;;;;;5.57;2.30;;;20.30;45.90;;;;;;6117416;29;20139;-68
2021/03/09 12:38:02;;;;;;;4.60;2.03;;;20.30;45.80;;;;;;6143379;29;20027;-68
2021/03/09 12:41:03;;;;;;;5.38;1.98;;;20.30;45.80;;;;;;6147887;29;20043;-68
2021/03/09 12:44:03;;;;;;;7.97;1.80;;;20.30;45.80;;;;;;6147799;28;20059;-67
2021/03/09 12:47:04;;;;;;;5.32;2.10;;;20.30;45.80;;;;;;6128255;29;20107;-68
2021/03/09 12:50:06;;;;;;;4.85;1.80;;;20.30;45.60;;;;;;6122936;29;20039;-68
2021/03/09 12:53:07;;;;;;;6.70;1.90;;;20.30;45.70;;;;;;6123487;29;20394;-68
2021/03/09 12:56:07;;;;;;;6.90;2.30;;;20.30;45.60;;;;;;6122126;29;20498;-68
2021/03/09 12:59:08;;;;;;;4.13;1.88;;;20.30;45.80;;;;;;6123320;29;20131;-67
2021/03/09 13:02:08;;;;;;;6.38;1.77;;;20.40;45.40;;;;;;6145411;28;20089;-67
2021/03/09 13:05:10;;;;;;;6.22;1.85;;;20.50;45.10;;;;;;6198616;28;20061;-70
2021/03/09 13:08:11;;;;;;;4.90;2.03;;;20.60;45.60;;;;;;6198448;28;20073;-67
2021/03/09 13:11:11;;;;;;;3.67;1.65;;;20.60;45.90;;;;;;6198188;28;20660;-68
2021/03/09 13:14:13;;;;;;;3.97;1.73;;;20.60;45.10;;;;;;6197691;28;20019;-68
2021/03/09 13:17:13;;;;;;;10.73;1.70;;;20.50;45.30;;;;;;6197899;28;20054;-67
2021/03/09 13:20:15;;;;;;;5.88;1.65;;;20.50;45.70;;;;;;6198553;28;20046;-68
2021/03/09 13:23:16;;;;;;;7.63;1.30;;;20.60;45.30;;;;;;6186664;28;20081;-68
2021/03/09 13:26:17;;;;;;;6.78;1.80;;;20.60;45.10;;;;;;6194028;28;20113;-69
2021/03/09 13:29:17;;;;;;;9.63;1.70;;;20.60;45.00;;;;;;6197163;28;20061;-69
2021/03/09 13:32:18;;;;;;;5.28;1.65;;;20.50;42.80;;;;;;6185833;28;20433;-68
2021/03/09 13:35:19;;;;;;;2.78;1.58;;;20.50;40.70;;;;;;6172955;28;20482;-68
2021/03/09 13:38:20;;;;;;;3.53;1.73;;;20.50;43.10;;;;;;6174240;28;20497;-68
2021/03/09 13:41:21;;;;;;;3.10;1.40;;;20.50;43.90;;;;;;6178410;28;20030;-68
2021/03/09 13:44:21;;;;;;;5.25;1.27;;;20.50;44.50;;;;;;6184980;28;20034;-68
2021/03/09 13:47:22;;;;;;;5.20;2.30;;;20.40;44.70;;;;;;6196854;28;20057;-68
2021/03/09 13:50:23;;;;;;;2.72;1.38;;;20.40;44.80;;;;;;6195777;28;20046;-68
2021/03/09 13:53:23;;;;;;;3.13;1.48;;;20.40;44.90;;;;;;6183127;28;20117;-68
2021/03/09 13:56:24;;;;;;;2.17;1.30;;;20.40;44.50;;;;;;6186852;28;20034;-68
2021/03/09 13:59:24;;;;;;;2.38;1.75;;;20.40;44.90;;;;;;6188223;28;20053;-68
2021/03/09 14:02:25;;;;;;;3.67;1.70;;;20.40;44.70;;;;;;6189186;28;20023;-68
2021/03/09 14:05:25;;;;;;;4.68;1.83;;;20.40;44.90;;;;;;6194442;28;20575;-68
2021/03/09 14:08:26;;;;;;;4.55;1.50;;;20.40;45.00;;;;;;6189893;28;20110;-69
2021/03/09 14:11:26;;;;;;;3.50;1.77;;;20.40;45.00;;;;;;6195541;28;20164;-68
2021/03/09 14:14:27;;;;;;;6.85;1.50;;;20.40;45.00;;;;;;6194893;28;20092;-66
2021/03/09 14:17:28;;;;;;;6.53;2.55;;;20.50;45.10;;;;;;6195137;28;20058;-67
2021/03/09 14:20:28;;;;;;;8.57;2.03;;;20.60;45.10;;;;;;6195906;28;20515;-66
2021/03/09 14:23:29;;;;;;;6.15;2.15;;;20.70;44.90;;;;;;6195304;28;20026;-68
2021/03/09 14:26:32;;;;;;;9.32;2.40;;;20.70;44.50;;;;;;6171685;28;20030;-65
2021/03/09 14:29:32;;;;;;;16.20;3.95;;;20.80;44.10;;;;;;6194630;28;20037;-70
2021/03/09 14:32:33;;;;;;;15.88;3.60;;;20.90;44.30;;;;;;6195272;28;20373;-65
2021/03/09 14:35:33;;;;;;;16.90;4.53;;;20.80;44.10;;;;;;6180194;28;20039;-69
2021/03/09 14:38:36;;;;;;;14.77;4.32;;;20.80;44.30;;;;;;6194510;28;20061;-70
2021/03/09 14:41:36;;;;;;;18.02;4.88;;;21.00;44.00;;;;;;6194407;28;20033;-66
2021/03/09 14:44:37;;;;;;;29.42;4.50;;;21.00;43.90;;;;;;6184228;28;20022;-66
2021/03/09 14:47:37;;;;;;;27.92;5.82;;;21.00;44.30;;;;;;6188522;28;20493;-66
2021/03/09 14:50:38;;;;;;;23.50;5.85;;;20.80;44.50;;;;;;6194595;28;20046;-66
2021/03/09 14:53:38;;;;;;;31.48;5.70;;;20.70;44.80;;;;;;6185655;28;20101;-66
2021/03/09 14:56:39;;;;;;;20.77;5.40;;;20.70;45.10;;;;;;6195296;28;20018;-66
2021/03/09 14:59:39;;;;;;;16.38;5.05;;;20.60;45.10;;;;;;6193996;28;20513;-66
2021/03/09 15:02:40;;;;;;;16.52;4.80;;;20.60;45.10;;;;;;6177258;28;20023;-66
2021/03/09 15:05:40;;;;;;;20.70;5.70;;;20.60;45.20;;;;;;6190377;28;20077;-65
2021/03/09 15:08:41;;;;;;;14.48;4.65;;;20.60;45.20;;;;;;6194347;28;20118;-66
2021/03/09 15:11:42;;;;;;;22.15;6.18;;;20.60;45.20;;;;;;6194667;28;20477;-66
2021/03/09 15:14:42;;;;;;;17.20;4.88;;;20.60;45.20;;;;;;6194686;28;20053;-66
2021/03/09 15:17:43;;;;;;;14.00;4.28;;;20.60;45.30;;;;;;6192907;28;20066;-66
2021/03/09 15:20:44;;;;;;;11.57;3.42;;;20.60;44.90;;;;;;6194749;28;20031;-66
2021/03/09 15:23:45;;;;;;;13.23;3.60;;;20.70;44.70;;;;;;6194744;28;20417;-69
2021/03/09 15:26:45;;;;;;;17.35;3.55;;;20.80;44.00;;;;;;6190488;28;20090;-66
2021/03/09 15:29:46;;;;;;;12.68;3.35;;;20.80;43.80;;;;;;6185535;28;20428;-67
2021/03/09 15:32:48;;;;;;;12.90;4.35;;;20.80;43.70;;;;;;6195235;28;20026;-65
2021/03/09 15:35:48;;;;;;;12.18;3.78;;;20.80;44.30;;;;;;6178987;28;20039;-67
2021/03/09 15:38:49;;;;;;;14.15;3.67;;;20.90;44.40;;;;;;6188964;28;20019;-65
2021/03/09 15:41:49;;;;;;;13.18;4.00;;;20.90;44.10;;;;;;6194391;28;20478;-65
2021/03/09 15:44:50;;;;;;;14.40;3.25;;;20.80;44.80;;;;;;6195337;28;20030;-67
2021/03/09 15:47:50;;;;;;;12.82;3.45;;;20.80;45.30;;;;;;6192738;28;20392;-67